Molengracht — PCJG — position and weather

sailwx.info

Track history (hours):
 
Tides and Currents Weather Stations Pressure Air Temp Water Temp Dewpoint Dewpoint Depression Visibility Wind Speed Wind Dir Waves Ship Positions

Molengracht

Last reported at 2016-Nov-28 17:25 UTC. Time now 2016-Dec-03 19:40 UTC.
Position S 18°25' E 116°45'.

Length 143 m; draft 7.6 m.

Type: Cargo ship. MMSI: 246770000.

Date/timePositionNaut miles runAvg speedWind from/ knotsBaromVisibWave heightAir tempDewpointWater temp
2016-Nov-28 17:25S 18°25' E 116°45'1113.4
2016-Nov-28 16:33S 18°36' E 116°47'2713.5
2016-Nov-28 14:33S 19°03' E 116°51'1313.4
2016-Nov-28 13:33S 19°16' E 116°52'1313.2
2016-Nov-28 12:33S 19°29' E 116°52'1313.2
2016-Nov-28 11:32S 19°43' E 116°52'1412.9
2016-Nov-28 10:30S 19°56' E 116°51'1313.3
2016-Nov-28 09:33S 20°09' E 116°48'1313.5
2016-Nov-28 08:33S 20°21' E 116°44'1312.7
2016-Nov-28 07:32S 20°34' E 116°42'  
2016-Nov-25 08:08S 20°37' E 116°45'4 6.5
2016-Nov-25 07:32S 20°34' E 116°42'7 0.3
2016-Nov-24 08:33S 20°28' E 116°45'8 8.5
2016-Nov-24 07:33S 20°19' E 116°44'1515.5
2016-Nov-24 06:33S 20°04' E 116°48'  
Track history (hours):
 
Tides and Currents Weather Stations Pressure Air Temp Water Temp Dewpoint Dewpoint Depression Visibility Wind Speed Wind Dir Waves Ship Positions

Molengracht

Last reported at 2016-Nov-28 17:25 UTC. Time now 2016-Dec-03 19:40 UTC.
Position S 18°25' E 116°45'.

Length 143 m; draft 7.6 m.

Type: Cargo ship. MMSI: 246770000.

Date/timePositionNaut miles runAvg speedWind from/ knotsBaromVisibWave heightAir tempDewpointWater temp
2016-Nov-28 17:25S 18°25' E 116°45'1113.4
2016-Nov-28 16:33S 18°36' E 116°47'2713.5
2016-Nov-28 14:33S 19°03' E 116°51'1313.4
2016-Nov-28 13:33S 19°16' E 116°52'1313.2
2016-Nov-28 12:33S 19°29' E 116°52'1313.2
2016-Nov-28 11:32S 19°43' E 116°52'1412.9
2016-Nov-28 10:30S 19°56' E 116°51'1313.3
2016-Nov-28 09:33S 20°09' E 116°48'1313.5
2016-Nov-28 08:33S 20°21' E 116°44'1312.7
2016-Nov-28 07:32S 20°34' E 116°42'  
2016-Nov-25 08:08S 20°37' E 116°45'4 6.5
2016-Nov-25 07:32S 20°34' E 116°42'7 0.3
2016-Nov-24 08:33S 20°28' E 116°45'8 8.5
2016-Nov-24 07:33S 20°19' E 116°44'1515.5
2016-Nov-24 06:33S 20°04' E 116°48'  

Dump ship's entire track history